createdAt,value
2018-11-20T00:01:15.717Z,13.87
2018-11-20T00:04:13.434Z,13.63
2018-11-20T00:07:03.880Z,14.77
2018-11-20T00:09:54.992Z,15.00
2018-11-20T00:12:55.425Z,14.03
2018-11-20T00:16:02.104Z,14.40
2018-11-20T00:18:53.620Z,14.03
2018-11-20T00:21:43.608Z,14.37
2018-11-20T00:24:35.438Z,14.00
2018-11-20T00:27:26.035Z,14.07
2018-11-20T00:30:16.740Z,13.03
2018-11-20T00:33:14.102Z,14.90
2018-11-20T00:35:55.995Z,14.07
2018-11-20T00:38:52.857Z,13.63
2018-11-20T00:41:59.827Z,13.53
2018-11-20T00:44:57.905Z,15.23
2018-11-20T00:47:46.216Z,13.57
2018-11-20T00:50:29.794Z,13.07
2018-11-20T00:53:18.645Z,14.10
2018-11-20T00:57:11.300Z,13.90
2018-11-20T01:00:11.629Z,13.30
2018-11-20T01:02:58.095Z,12.97
2018-11-20T01:05:39.283Z,14.07
2018-11-20T01:08:43.601Z,14.23
2018-11-20T01:11:33.005Z,15.20
2018-11-20T01:14:25.067Z,13.93
2018-11-20T01:17:23.116Z,13.40
2018-11-20T01:20:13.718Z,14.07
2018-11-20T01:23:00.738Z,14.17
2018-11-20T01:25:50.822Z,12.60
2018-11-20T01:28:40.912Z,14.53
2018-11-20T01:31:32.510Z,14.10
2018-11-20T01:34:22.215Z,13.50
2018-11-20T01:37:22.956Z,14.30
2018-11-20T01:40:14.342Z,13.67
2018-11-20T01:43:08.439Z,13.13
2018-11-20T01:45:58.821Z,12.80
2018-11-20T01:48:50.891Z,13.80
2018-11-20T01:51:36.670Z,15.03
2018-11-20T01:54:40.177Z,14.00
2018-11-20T01:57:30.471Z,14.47
2018-11-20T02:00:22.300Z,13.77
2018-11-20T02:03:11.874Z,14.27
2018-11-20T02:06:03.397Z,14.10
2018-11-20T02:09:13.864Z,13.87
2018-11-20T02:12:08.226Z,12.60
2018-11-20T02:15:00.089Z,15.13
2018-11-20T02:18:09.013Z,12.53
2018-11-20T02:20:58.589Z,14.27
2018-11-20T02:23:52.773Z,14.50
2018-11-20T02:26:36.688Z,13.63
2018-11-20T02:29:43.294Z,14.47
2018-11-20T02:32:35.635Z,13.67
2018-11-20T02:35:20.500Z,14.27
2018-11-20T02:38:11.408Z,13.97
2018-11-20T02:41:09.036Z,14.93
2018-11-20T02:44:00.968Z,14.27
2018-11-20T02:46:51.310Z,13.93
2018-11-20T02:49:41.284Z,13.43
2018-11-20T02:52:28.473Z,14.20
2018-11-20T02:55:18.187Z,14.00
2018-11-20T02:58:21.895Z,13.37
2018-11-20T03:01:04.466Z,13.43
2018-11-20T03:03:54.420Z,14.27
2018-11-20T03:06:44.275Z,14.80
2018-11-20T03:09:24.293Z,13.07
2018-11-20T03:12:14.521Z,13.07
2018-11-20T03:15:13.313Z,14.30
2018-11-20T03:18:20.092Z,13.90
2018-11-20T03:21:09.667Z,13.67
2018-11-20T03:23:59.551Z,14.00
2018-11-20T03:26:47.715Z,13.23
2018-11-20T03:30:35.751Z,14.87
2018-11-20T03:33:18.663Z,13.87
2018-11-20T03:36:08.596Z,12.90
2018-11-20T03:38:59.354Z,14.97
2018-11-20T03:41:52.886Z,14.43
2018-11-20T03:44:56.657Z,15.63
2018-11-20T03:47:48.174Z,14.40
2018-11-20T03:50:37.933Z,14.73
2018-11-20T03:53:27.814Z,15.40
2018-11-20T03:56:27.943Z,14.20
2018-11-20T03:59:18.135Z,14.53
2018-11-20T04:02:12.464Z,14.10
2018-11-20T04:05:03.602Z,15.00
2018-11-20T04:07:57.406Z,15.63
2018-11-20T04:10:52.310Z,13.73
2018-11-20T04:13:46.725Z,15.73
2018-11-20T04:16:49.802Z,15.23
2018-11-20T04:19:40.084Z,15.13
2018-11-20T04:22:34.758Z,15.33
2018-11-20T04:25:38.593Z,15.23
2018-11-20T04:28:32.777Z,14.27
2018-11-20T04:32:09.845Z,16.00
2018-11-20T04:35:01.493Z,15.73
2018-11-20T04:37:56.413Z,14.73
2018-11-20T04:40:50.847Z,15.50
2018-11-20T04:43:47.835Z,15.40
2018-11-20T04:46:42.234Z,15.63
2018-11-20T04:49:33.031Z,16.47
2018-11-20T04:52:15.968Z,15.70
2018-11-20T04:55:13.411Z,16.83
2018-11-20T04:58:04.116Z,15.53
2018-11-20T05:01:01.544Z,16.43
2018-11-20T05:03:53.254Z,16.23
2018-11-20T05:06:51.496Z,14.50
2018-11-20T05:09:45.985Z,14.90
2018-11-20T05:12:35.753Z,14.93
2018-11-20T05:15:25.638Z,15.03
2018-11-20T05:18:32.011Z,15.00
2018-11-20T05:21:37.763Z,15.07
2018-11-20T05:24:38.099Z,15.47
2018-11-20T05:27:27.978Z,14.50
2018-11-20T05:30:19.906Z,15.40
2018-11-20T05:33:11.432Z,15.30
2018-11-20T05:36:01.724Z,14.70
2018-11-20T05:38:52.152Z,14.93
2018-11-20T05:41:42.310Z,13.97
2018-11-20T05:44:30.555Z,15.30
2018-11-20T05:47:21.464Z,15.17
2018-11-20T05:50:18.673Z,14.10
2018-11-20T05:53:00.585Z,15.93
2018-11-20T05:55:57.258Z,14.63
2018-11-20T05:58:47.724Z,14.13
2018-11-20T06:01:38.462Z,13.93
2018-11-20T06:04:38.868Z,13.70
2018-11-20T06:07:45.366Z,15.80
2018-11-20T06:10:52.453Z,13.93
2018-11-20T06:13:49.911Z,14.20
2018-11-20T06:16:34.030Z,13.03
2018-11-20T06:19:34.695Z,14.37
2018-11-20T06:22:25.094Z,13.67
2018-11-20T06:25:18.971Z,14.00
2018-11-20T06:28:13.154Z,12.60
2018-11-20T06:31:20.450Z,12.80
2018-11-20T06:34:08.687Z,14.13
2018-11-20T06:36:59.779Z,13.57
2018-11-20T06:39:50.509Z,12.03
2018-11-20T06:42:53.396Z,11.80
2018-11-20T06:45:48.505Z,13.17
2018-11-20T06:48:46.476Z,12.27
2018-11-20T06:51:46.757Z,11.87
2018-11-20T06:54:39.317Z,11.57
2018-11-20T06:57:25.461Z,12.80
2018-11-20T07:00:28.128Z,11.50
2018-11-20T07:03:21.906Z,11.37
2018-11-20T07:06:13.630Z,11.10
2018-11-20T07:09:03.413Z,11.10
2018-11-20T07:11:53.807Z,11.70
2018-11-20T07:14:48.400Z,11.47
2018-11-20T07:17:51.188Z,9.97
2018-11-20T07:20:41.278Z,11.37
2018-11-20T07:23:51.233Z,11.03
2018-11-20T07:26:42.344Z,11.23
2018-11-20T07:29:51.671Z,11.10
2018-11-20T07:32:43.772Z,10.07
2018-11-20T07:35:38.256Z,11.20
2018-11-20T07:38:28.257Z,9.80
2018-11-20T07:41:13.551Z,10.77
2018-11-20T07:44:20.660Z,10.90
2018-11-20T07:47:11.056Z,10.87
2018-11-20T07:50:01.458Z,10.53
2018-11-20T07:52:56.153Z,10.83
2018-11-20T07:56:01.881Z,10.87
2018-11-20T07:58:51.483Z,9.57
2018-11-20T08:01:48.446Z,10.13
2018-11-20T08:04:38.619Z,9.83
2018-11-20T08:07:32.498Z,9.27
2018-11-20T08:10:26.794Z,9.90
2018-11-20T08:13:34.079Z,11.00
2018-11-20T08:16:23.860Z,10.17
2018-11-20T08:19:27.771Z,10.17
2018-11-20T08:22:17.654Z,9.00
2018-11-20T08:25:09.201Z,10.10
2018-11-20T08:28:00.394Z,10.10
2018-11-20T08:30:51.942Z,10.47
2018-11-20T08:33:43.083Z,10.27
2018-11-20T08:36:32.914Z,10.97
2018-11-20T08:39:32.318Z,10.80
2018-11-20T08:42:39.098Z,10.03
2018-11-20T08:45:28.983Z,11.40
2018-11-20T08:48:29.359Z,10.07
2018-11-20T08:51:19.811Z,11.07
2018-11-20T08:54:16.247Z,11.20
2018-11-20T08:57:23.028Z,10.87
2018-11-20T09:00:24.072Z,8.80
2018-11-20T09:03:13.702Z,11.00
2018-11-20T09:05:58.208Z,9.37
2018-11-20T09:08:49.219Z,9.70
2018-11-20T09:11:52.724Z,11.03
2018-11-20T09:14:50.181Z,9.57
2018-11-20T09:17:48.624Z,9.43
2018-11-20T09:20:40.086Z,10.53
2018-11-20T09:23:34.089Z,10.23
2018-11-20T09:26:43.712Z,8.90
2018-11-20T09:29:50.801Z,9.67
2018-11-20T09:32:53.842Z,8.90
2018-11-20T09:35:51.452Z,8.47
2018-11-20T09:38:58.033Z,7.97
2018-11-20T09:41:48.429Z,8.43
2018-11-20T09:44:40.434Z,9.17
2018-11-20T09:47:49.904Z,7.03
2018-11-20T09:50:43.961Z,7.63
2018-11-20T09:53:34.384Z,7.67
2018-11-20T09:56:43.911Z,7.23
2018-11-20T09:59:41.482Z,7.23
2018-11-20T10:02:30.656Z,6.47
2018-11-20T10:05:31.093Z,6.23
2018-11-20T10:08:11.310Z,6.50
2018-11-20T10:11:08.402Z,6.30
2018-11-20T10:14:05.783Z,6.30
2018-11-20T10:16:57.994Z,5.63
2018-11-20T10:19:59.062Z,5.30
2018-11-20T10:22:59.687Z,6.17
2018-11-20T10:26:02.788Z,6.17
2018-11-20T10:28:57.236Z,5.87
2018-11-20T10:31:47.146Z,6.17
2018-11-20T10:34:34.028Z,6.40
2018-11-20T10:37:28.043Z,6.63
2018-11-20T10:40:18.492Z,6.10
2018-11-20T10:43:12.825Z,5.70
2018-11-20T10:46:22.891Z,6.57
2018-11-20T10:49:13.997Z,6.43
2018-11-20T10:51:58.110Z,5.90
2018-11-20T10:54:51.821Z,6.47
2018-11-20T10:57:42.725Z,6.70
2018-11-20T11:00:32.505Z,7.07
2018-11-20T11:03:22.285Z,7.00
2018-11-20T11:06:17.162Z,6.60
2018-11-20T11:09:24.074Z,6.57
2018-11-20T11:12:22.597Z,6.73
2018-11-20T11:15:08.448Z,6.93
2018-11-20T11:17:58.125Z,7.07
2018-11-20T11:21:04.973Z,6.80
2018-11-20T11:24:02.471Z,6.63
2018-11-20T11:27:00.037Z,7.23
2018-11-20T11:29:49.818Z,7.27
2018-11-20T11:32:44.309Z,6.73
2018-11-20T11:35:39.027Z,6.93
2018-11-20T11:38:30.834Z,7.13
2018-11-20T11:41:20.512Z,7.60
2018-11-20T11:44:17.888Z,6.30
2018-11-20T11:47:08.267Z,7.23
2018-11-20T11:49:58.560Z,7.63
2018-11-20T11:52:49.262Z,7.37
2018-11-20T11:55:39.248Z,6.90
2018-11-20T11:58:36.486Z,6.50
2018-11-20T12:04:22.416Z,5.90
2018-11-20T12:07:08.579Z,6.50
2018-11-20T12:10:11.269Z,7.13
2018-11-20T12:13:05.901Z,6.17
2018-11-20T12:15:59.863Z,6.80
2018-11-20T12:18:50.163Z,6.77
2018-11-20T12:21:35.849Z,6.83
2018-11-20T12:24:27.316Z,6.53
2018-11-20T12:27:17.162Z,7.27
2018-11-20T12:30:17.584Z,6.33
2018-11-20T12:33:12.194Z,6.57
2018-11-20T12:36:05.908Z,6.67
2018-11-20T12:38:57.045Z,6.87
2018-11-20T12:41:49.203Z,6.70
2018-11-20T12:44:41.238Z,6.77
2018-11-20T12:47:30.366Z,7.30
2018-11-20T12:50:28.088Z,7.17
2018-11-20T12:53:25.044Z,7.57
2018-11-20T12:56:31.477Z,7.67
2018-11-20T12:59:23.288Z,7.73
2018-11-20T13:02:21.056Z,7.77
2018-11-20T13:05:11.181Z,8.53
2018-11-20T13:08:02.905Z,7.60
2018-11-20T13:10:53.099Z,8.63
2018-11-20T13:13:44.109Z,10.03
2018-11-20T13:16:34.913Z,9.90
2018-11-20T13:19:27.427Z,8.80
2018-11-20T13:22:26.969Z,8.90
2018-11-20T13:25:30.983Z,9.50
2018-11-20T13:28:25.352Z,9.07
2018-11-20T13:31:25.908Z,7.90
2018-11-20T13:34:29.412Z,8.73
2018-11-20T13:37:19.811Z,9.03
2018-11-20T13:40:09.794Z,8.60
2018-11-20T13:42:59.170Z,9.13
2018-11-20T13:49:21.735Z,9.33
2018-11-20T13:52:04.412Z,8.80
2018-11-20T13:55:05.088Z,9.13
2018-11-20T13:57:55.377Z,9.07
2018-11-20T14:00:55.573Z,9.27
2018-11-20T14:03:43.148Z,8.67
2018-11-20T14:06:38.058Z,7.90
2018-11-20T14:09:33.429Z,8.13
2018-11-20T14:12:28.148Z,8.03
2018-11-20T14:15:24.992Z,9.07
2018-11-20T14:18:16.821Z,10.00
2018-11-20T14:21:06.912Z,8.83
2018-11-20T14:24:02.240Z,8.47
2018-11-20T14:26:53.743Z,9.60
2018-11-20T14:29:43.628Z,8.60
2018-11-20T14:32:47.137Z,8.97
2018-11-20T14:35:41.731Z,8.73
2018-11-20T14:38:41.879Z,9.03
2018-11-20T14:41:30.016Z,9.07
2018-11-20T14:44:10.421Z,7.37
2018-11-20T14:47:09.655Z,7.83
2018-11-20T14:50:16.229Z,8.23
2018-11-20T14:53:08.469Z,9.13
2018-11-20T14:56:05.504Z,8.73
2018-11-20T14:58:51.989Z,8.33
2018-11-20T15:01:35.049Z,8.93
2018-11-20T15:04:26.672Z,8.53
2018-11-20T15:07:21.724Z,8.90
2018-11-20T15:10:21.701Z,8.20
2018-11-20T15:13:22.560Z,8.30
2018-11-20T15:16:09.252Z,8.60
2018-11-20T15:19:19.011Z,8.63
2018-11-20T15:22:09.291Z,8.57
2018-11-20T15:25:00.405Z,8.67
2018-11-20T15:27:46.877Z,8.37
2018-11-20T15:30:53.076Z,9.40
2018-11-20T15:33:41.728Z,8.73
2018-11-20T15:36:31.714Z,8.80
2018-11-20T15:39:22.112Z,9.20
2018-11-20T15:42:16.671Z,9.20
2018-11-20T15:45:20.330Z,8.60
2018-11-20T15:48:20.845Z,8.27
2018-11-20T15:51:24.564Z,7.63
2018-11-20T15:54:08.907Z,8.80
2018-11-20T15:56:59.609Z,8.97
2018-11-20T15:59:55.903Z,8.43
2018-11-20T16:02:49.819Z,9.13
2018-11-20T16:05:40.115Z,8.80
2018-11-20T16:08:43.410Z,8.80
2018-11-20T16:11:27.432Z,8.30
2018-11-20T16:14:21.645Z,8.40
2018-11-20T16:17:17.346Z,9.67
2018-11-20T16:20:10.832Z,9.27
2018-11-20T16:23:02.835Z,8.77
2018-11-20T16:25:53.437Z,9.03
2018-11-20T16:28:50.790Z,9.97
2018-11-20T16:31:40.404Z,9.67
2018-11-20T16:34:31.485Z,9.20
2018-11-20T16:37:21.194Z,8.53
2018-11-20T16:40:10.877Z,9.63
2018-11-20T16:43:23.847Z,9.60
2018-11-20T16:46:20.858Z,9.33
2018-11-20T16:49:18.362Z,9.13
2018-11-20T16:52:03.382Z,9.57
2018-11-20T16:55:03.712Z,9.87
2018-11-20T16:58:38.344Z,10.33
2018-11-20T17:01:27.306Z,8.23
2018-11-20T17:04:16.574Z,8.50
2018-11-20T17:07:05.744Z,9.07
2018-11-20T17:10:02.283Z,9.50
2018-11-20T17:12:51.242Z,8.93
2018-11-20T17:15:43.178Z,8.43
2018-11-20T17:18:32.241Z,9.37
2018-11-20T17:21:21.919Z,8.20
2018-11-20T17:24:15.092Z,6.50
2018-11-20T17:27:13.979Z,8.90
2018-11-20T17:30:13.175Z,10.73
2018-11-20T17:33:03.878Z,9.70
2018-11-20T17:36:05.516Z,7.70
2018-11-20T17:38:50.176Z,8.77
2018-11-20T17:41:43.391Z,9.73
2018-11-20T17:44:53.440Z,9.87
2018-11-20T17:47:45.046Z,10.50
2018-11-20T17:50:41.171Z,8.33
2018-11-20T17:53:33.307Z,11.23
2018-11-20T17:56:30.030Z,9.30
2018-11-20T17:59:33.762Z,9.33
2018-11-20T18:02:44.227Z,10.13
2018-11-20T18:05:52.625Z,10.77
2018-11-20T18:09:00.452Z,11.13
2018-11-20T18:12:06.338Z,10.87
2018-11-20T18:14:55.170Z,11.93
2018-11-20T18:17:47.860Z,8.87
2018-11-20T18:20:35.652Z,11.43
2018-11-20T18:23:23.492Z,12.03
2018-11-20T18:26:26.117Z,12.47
2018-11-20T18:29:28.613Z,12.53
2018-11-20T18:32:17.920Z,9.03
2018-11-20T18:35:03.085Z,12.07
2018-11-20T18:38:05.425Z,11.00
2018-11-20T18:40:55.047Z,10.30
2018-11-20T18:43:48.286Z,11.30
2018-11-20T18:46:47.513Z,10.93
2018-11-20T18:49:47.108Z,11.20
2018-11-20T18:52:34.960Z,9.87
2018-11-20T18:55:22.464Z,10.50
2018-11-20T18:58:15.853Z,11.07
2018-11-20T19:01:21.407Z,11.67
2018-11-20T19:04:23.986Z,11.47
2018-11-20T19:07:17.349Z,9.27
2018-11-20T19:10:10.636Z,9.70
2018-11-20T19:12:59.578Z,10.10
2018-11-20T19:15:49.973Z,11.07
2018-11-20T19:18:28.459Z,10.97
2018-11-20T19:21:20.901Z,11.30
2018-11-20T19:24:11.740Z,11.00
2018-11-20T19:27:07.623Z,11.23
2018-11-20T19:29:56.830Z,10.30
2018-11-20T19:32:46.202Z,8.23
2018-11-20T19:35:37.494Z,11.23
2018-11-20T19:38:24.331Z,9.30
2018-11-20T19:41:13.192Z,11.70
2018-11-20T19:44:02.154Z,11.73
2018-11-20T19:46:55.416Z,11.43
2018-11-20T19:49:43.969Z,10.80
2018-11-20T19:52:49.315Z,10.80
2018-11-20T19:55:44.424Z,9.20
2018-11-20T19:58:33.864Z,10.17
2018-11-20T20:01:42.725Z,10.60
2018-11-20T20:04:33.218Z,10.37
2018-11-20T20:07:22.494Z,10.40
2018-11-20T20:10:17.656Z,10.40
2018-11-20T20:12:55.911Z,9.87
2018-11-20T20:15:44.874Z,10.67
2018-11-20T20:18:34.733Z,11.23
2018-11-20T20:21:23.821Z,10.20
2018-11-20T20:24:23.536Z,11.10
2018-11-20T20:27:12.597Z,10.07
2018-11-20T20:30:01.461Z,10.93
2018-11-20T20:32:50.521Z,9.90
2018-11-20T20:35:56.275Z,10.97
2018-11-20T20:38:45.444Z,10.07
2018-11-20T20:41:41.984Z,10.60
2018-11-20T20:44:30.845Z,10.43
2018-11-20T20:47:27.281Z,11.33
2018-11-20T20:50:32.524Z,10.53
2018-11-20T20:53:25.724Z,10.50
2018-11-20T20:56:14.956Z,10.87
2018-11-20T20:58:57.160Z,10.13
2018-11-20T21:01:41.897Z,11.40
2018-11-20T21:04:33.211Z,9.33
2018-11-20T21:07:22.304Z,11.57
2018-11-20T21:10:31.132Z,10.50
2018-11-20T21:13:19.685Z,10.13
2018-11-20T21:16:00.482Z,10.70
2018-11-20T21:18:50.426Z,10.00
2018-11-20T21:21:38.174Z,10.60
2018-11-20T21:24:20.041Z,9.90
2018-11-20T21:27:22.678Z,11.90
2018-11-20T21:30:09.229Z,9.90
2018-11-20T21:33:14.913Z,9.40
2018-11-20T21:36:11.018Z,10.33
2018-11-20T21:39:00.210Z,7.70
2018-11-20T21:41:48.937Z,8.53
2018-11-20T21:44:42.124Z,7.70
2018-11-20T21:47:30.783Z,9.57
2018-11-20T21:50:30.084Z,7.40
2018-11-20T21:53:29.079Z,8.70
2018-11-20T21:56:25.318Z,8.70
2018-11-20T21:59:06.870Z,8.23
2018-11-20T22:02:00.831Z,10.33
2018-11-20T22:04:50.462Z,9.57
2018-11-20T22:07:43.275Z,10.90
2018-11-20T22:10:39.569Z,8.93
2018-11-20T22:13:28.408Z,9.73
2018-11-20T22:16:16.856Z,7.63
2018-11-20T22:19:21.998Z,9.87
2018-11-20T22:22:30.927Z,9.60
2018-11-20T22:25:25.113Z,10.17
2018-11-20T22:28:13.874Z,10.90
2018-11-20T22:31:12.868Z,9.97
2018-11-20T22:34:01.318Z,9.93
2018-11-20T22:36:55.091Z,8.80
2018-11-20T22:39:46.872Z,10.47
2018-11-20T22:42:36.910Z,10.07
2018-11-20T22:45:45.850Z,10.50
2018-11-20T22:48:31.425Z,9.73
2018-11-20T22:51:27.756Z,10.00
2018-11-20T22:54:29.931Z,10.83
2018-11-20T22:57:06.267Z,9.40
2018-11-20T22:59:55.362Z,9.73
2018-11-20T23:02:49.036Z,8.77
2018-11-20T23:05:48.772Z,9.77
2018-11-20T23:08:19.798Z,11.23
2018-11-20T23:10:51.365Z,9.60
2018-11-20T23:13:22.831Z,9.40
2018-11-20T23:15:54.178Z,10.40
2018-11-20T23:18:25.717Z,8.93
2018-11-20T23:20:57.091Z,7.67
2018-11-20T23:23:28.614Z,9.70
2018-11-20T23:26:00.401Z,9.43
2018-11-20T23:28:32.581Z,9.20
2018-11-20T23:31:04.003Z,10.30
2018-11-20T23:33:35.768Z,6.87
2018-11-20T23:36:07.364Z,9.10
2018-11-20T23:38:39.015Z,8.70
2018-11-20T23:41:10.438Z,9.40
2018-11-20T23:43:41.450Z,9.83
2018-11-20T23:46:13.319Z,9.60
2018-11-20T23:48:45.020Z,6.73
2018-11-20T23:51:16.767Z,8.60
2018-11-20T23:53:48.618Z,6.97
2018-11-20T23:56:19.646Z,10.20
2018-11-20T23:58:51.334Z,11.23
